createdAt,value
2024-01-16T00:02:12.433Z,90.19
2024-01-16T00:04:42.118Z,90.62
2024-01-16T00:07:10.143Z,90.68
2024-01-16T00:09:38.328Z,90.71
2024-01-16T00:12:06.862Z,90.58
2024-01-16T00:14:38.549Z,91.26
2024-01-16T00:17:07.144Z,90.62
2024-01-16T00:19:35.323Z,91.25
2024-01-16T00:22:06.316Z,92.08
2024-01-16T00:24:34.746Z,92.27
2024-01-16T00:27:02.526Z,92.62
2024-01-16T00:29:31.860Z,92.80
2024-01-16T00:31:59.856Z,90.72
2024-01-16T00:34:27.868Z,90.19
2024-01-16T00:36:56.285Z,90.43
2024-01-16T00:39:24.212Z,91.00
2024-01-16T00:41:52.212Z,91.22
2024-01-16T00:44:20.530Z,91.61
2024-01-16T00:46:48.588Z,91.70
2024-01-16T00:49:18.979Z,91.91
2024-01-16T00:51:48.503Z,91.66
2024-01-16T00:54:16.467Z,91.96
2024-01-16T00:56:44.402Z,92.16
2024-01-16T00:59:13.442Z,92.46
2024-01-16T01:01:41.444Z,92.59
2024-01-16T01:04:09.296Z,93.13
2024-01-16T01:06:37.765Z,92.84
2024-01-16T01:09:05.776Z,93.29
2024-01-16T01:11:33.614Z,92.70
2024-01-16T01:14:01.619Z,92.63
2024-01-16T01:16:29.641Z,92.98
2024-01-16T01:18:57.429Z,93.52
2024-01-16T01:21:25.847Z,93.39
2024-01-16T01:23:53.996Z,93.57
2024-01-16T01:26:21.948Z,93.17
2024-01-16T01:28:52.011Z,93.41
2024-01-16T01:31:21.437Z,93.21
2024-01-16T01:33:49.283Z,92.84
2024-01-16T01:36:17.542Z,93.02
2024-01-16T01:38:45.784Z,92.99
2024-01-16T01:41:13.758Z,92.77
2024-01-16T01:43:41.819Z,92.60
2024-01-16T01:46:19.641Z,92.38
2024-01-16T01:48:49.515Z,92.39
2024-01-16T01:51:21.642Z,92.03
2024-01-16T01:53:52.821Z,91.80
2024-01-16T01:56:22.299Z,91.62
2024-01-16T01:58:54.783Z,91.72
2024-01-16T02:01:23.824Z,91.48
2024-01-16T02:03:53.521Z,91.29
2024-01-16T02:06:21.721Z,91.46
2024-01-16T02:08:50.146Z,91.56
2024-01-16T02:11:18.242Z,91.65
2024-01-16T02:13:46.857Z,91.57
2024-01-16T02:16:25.286Z,91.67
2024-01-16T02:18:54.036Z,91.67
2024-01-16T02:21:23.652Z,91.65
2024-01-16T02:23:51.581Z,91.54
2024-01-16T02:26:20.823Z,91.34
2024-01-16T02:28:49.532Z,91.03
2024-01-16T02:31:18.032Z,91.28
2024-01-16T02:33:46.364Z,91.27
2024-01-16T02:36:14.954Z,91.43
2024-01-16T02:38:46.067Z,91.46
2024-01-16T02:41:17.104Z,91.54
2024-01-16T02:43:45.916Z,91.35
2024-01-16T02:46:14.651Z,91.17
2024-01-16T02:48:44.067Z,91.61
2024-01-16T02:51:12.123Z,91.74
2024-01-16T02:53:40.145Z,92.33
2024-01-16T02:56:10.068Z,92.76
2024-01-16T02:58:38.644Z,92.84
2024-01-16T03:01:06.548Z,92.80
2024-01-16T03:03:34.765Z,93.07
2024-01-16T03:06:03.016Z,93.38
2024-01-16T03:08:31.405Z,93.31
2024-01-16T03:10:59.317Z,93.62
2024-01-16T03:13:27.435Z,93.49
2024-01-16T03:15:55.413Z,93.59
2024-01-16T03:18:23.651Z,93.44
2024-01-16T03:20:51.956Z,93.21
2024-01-16T03:23:20.200Z,93.09
2024-01-16T03:25:48.469Z,93.09
2024-01-16T03:28:16.501Z,93.80
2024-01-16T03:30:44.580Z,94.12
2024-01-16T03:33:12.784Z,94.20
2024-01-16T03:35:40.726Z,94.30
2024-01-16T03:38:08.828Z,94.45
2024-01-16T03:40:37.132Z,94.19
2024-01-16T03:43:06.698Z,94.01
2024-01-16T03:45:34.505Z,93.90
2024-01-16T03:48:04.891Z,93.99
2024-01-16T03:50:33.019Z,93.91
2024-01-16T03:53:01.005Z,93.95
2024-01-16T03:55:28.897Z,93.82
2024-01-16T03:57:56.803Z,94.09
2024-01-16T04:00:25.100Z,93.92
2024-01-16T04:02:53.053Z,93.70
2024-01-16T04:05:21.281Z,93.59
2024-01-16T04:07:49.438Z,93.45
2024-01-16T04:10:17.378Z,93.40
2024-01-16T04:12:45.381Z,93.34
2024-01-16T04:15:13.430Z,93.08
2024-01-16T04:17:41.520Z,92.86
2024-01-16T04:20:10.722Z,92.80
2024-01-16T04:22:38.646Z,92.71
2024-01-16T04:25:07.458Z,92.97
2024-01-16T04:27:35.416Z,92.75
2024-01-16T04:30:04.280Z,92.73
2024-01-16T04:32:32.834Z,92.76
2024-01-16T04:35:00.935Z,92.68
2024-01-16T04:37:28.905Z,92.58
2024-01-16T04:39:59.303Z,92.64
2024-01-16T04:42:27.783Z,92.60
2024-01-16T04:44:55.645Z,92.60
2024-01-16T04:47:23.844Z,92.52
2024-01-16T04:49:51.911Z,92.40
2024-01-16T04:52:20.219Z,92.44
2024-01-16T04:54:48.524Z,92.80
2024-01-16T04:57:16.449Z,92.82
2024-01-16T04:59:44.294Z,92.78
2024-01-16T05:02:12.899Z,92.86
2024-01-16T05:04:40.899Z,92.94
2024-01-16T05:07:08.651Z,92.61
2024-01-16T05:09:36.777Z,92.76
2024-01-16T05:12:05.759Z,92.93
2024-01-16T05:14:33.529Z,92.82
2024-01-16T05:17:01.692Z,92.60
2024-01-16T05:19:29.989Z,92.76
2024-01-16T05:21:57.779Z,92.50
2024-01-16T05:24:26.105Z,92.39
2024-01-16T05:26:54.228Z,92.40
2024-01-16T05:29:22.090Z,92.46
2024-01-16T05:31:51.651Z,92.15
2024-01-16T05:34:19.797Z,92.18
2024-01-16T05:36:47.594Z,92.02
2024-01-16T05:39:15.640Z,92.25
2024-01-16T05:41:43.650Z,92.24
2024-01-16T05:44:11.863Z,92.06
2024-01-16T05:46:39.960Z,91.77
2024-01-16T05:49:08.390Z,91.73
2024-01-16T05:51:36.541Z,91.72
2024-01-16T05:54:04.782Z,91.76
2024-01-16T05:56:33.286Z,91.69
2024-01-16T05:59:01.068Z,92.00
2024-01-16T06:01:29.317Z,92.24
2024-01-16T06:03:57.174Z,92.00
2024-01-16T06:06:25.017Z,91.89
2024-01-16T06:08:53.440Z,92.08
2024-01-16T06:11:31.750Z,91.73
2024-01-16T06:14:00.934Z,91.83
2024-01-16T06:16:28.996Z,91.58
2024-01-16T06:18:56.805Z,91.52
2024-01-16T06:21:25.732Z,91.49
2024-01-16T06:23:54.003Z,91.56
2024-01-16T06:26:22.862Z,91.44
2024-01-16T06:28:50.990Z,91.59
2024-01-16T06:31:21.644Z,91.54
2024-01-16T06:33:50.252Z,91.86
2024-01-16T06:36:18.769Z,91.62
2024-01-16T06:38:47.075Z,91.77
2024-01-16T06:41:14.965Z,91.90
2024-01-16T06:43:43.003Z,91.58
2024-01-16T06:46:11.048Z,91.53
2024-01-16T06:48:39.517Z,91.54
2024-01-16T06:51:09.465Z,91.63
2024-01-16T06:53:38.200Z,91.83
2024-01-16T06:56:09.046Z,92.03
2024-01-16T06:58:37.374Z,93.13
2024-01-16T07:01:05.421Z,92.02
2024-01-16T07:03:33.443Z,91.51
2024-01-16T07:06:04.436Z,91.39
2024-01-16T07:08:33.009Z,91.33
2024-01-16T07:11:01.166Z,91.17
2024-01-16T07:13:29.565Z,91.20
2024-01-16T07:15:57.819Z,91.54
2024-01-16T07:18:25.953Z,91.48
2024-01-16T07:20:54.319Z,91.72
2024-01-16T07:23:22.398Z,91.69
2024-01-16T07:25:50.404Z,91.40
2024-01-16T07:28:18.869Z,91.38
2024-01-16T07:30:46.867Z,91.40
2024-01-16T07:33:14.841Z,91.48
2024-01-16T07:35:45.351Z,91.81
2024-01-16T07:38:13.459Z,91.71
2024-01-16T07:40:41.364Z,91.47
2024-01-16T07:43:09.526Z,91.53
2024-01-16T07:45:37.540Z,91.45
2024-01-16T07:48:05.773Z,91.59
2024-01-16T07:50:36.359Z,91.31
2024-01-16T07:53:04.391Z,91.52
2024-01-16T07:55:32.516Z,91.24
2024-01-16T07:58:00.712Z,90.97
2024-01-16T08:00:33.323Z,90.99
2024-01-16T08:03:01.740Z,90.92
2024-01-16T08:05:31.647Z,90.91
2024-01-16T08:07:59.762Z,90.62
2024-01-16T08:10:27.962Z,90.12
2024-01-16T08:12:56.006Z,90.05
2024-01-16T08:15:24.055Z,90.06
2024-01-16T08:17:52.492Z,89.87
2024-01-16T08:20:20.683Z,89.91
2024-01-16T08:22:48.649Z,89.84
2024-01-16T08:25:17.262Z,89.65
2024-01-16T08:27:46.490Z,89.53
2024-01-16T08:30:14.691Z,89.88
2024-01-16T08:32:43.103Z,89.47
2024-01-16T08:35:11.779Z,89.35
2024-01-16T08:37:40.449Z,89.47
2024-01-16T08:40:09.491Z,89.60
2024-01-16T08:42:37.491Z,89.10
2024-01-16T08:45:06.757Z,88.95
2024-01-16T08:47:35.024Z,88.93
2024-01-16T08:50:03.689Z,89.32
2024-01-16T08:52:32.199Z,89.28
2024-01-16T08:55:03.478Z,90.04
2024-01-16T08:57:31.422Z,90.86
2024-01-16T08:59:59.411Z,90.81
2024-01-16T09:02:30.516Z,90.99
2024-01-16T09:04:59.843Z,91.42
2024-01-16T09:07:29.114Z,91.17
2024-01-16T09:09:59.863Z,90.96
2024-01-16T09:12:27.756Z,90.77
2024-01-16T09:14:55.769Z,91.32
2024-01-16T09:17:27.053Z,91.18
2024-01-16T09:19:55.126Z,90.97
2024-01-16T09:22:23.151Z,91.61
2024-01-16T09:24:51.392Z,92.57
2024-01-16T09:27:19.582Z,91.27
2024-01-16T09:29:47.590Z,90.89
2024-01-16T09:32:15.645Z,90.31
2024-01-16T09:34:43.486Z,90.22
2024-01-16T09:37:14.017Z,90.21
2024-01-16T09:39:42.522Z,90.65
2024-01-16T09:42:10.674Z,90.52
2024-01-16T09:44:39.009Z,89.87
2024-01-16T09:47:09.340Z,89.23
2024-01-16T09:49:37.602Z,89.10
2024-01-16T09:52:11.467Z,89.61
2024-01-16T09:54:54.935Z,89.65
2024-01-16T09:57:28.301Z,89.46
2024-01-16T10:00:09.469Z,89.58
2024-01-16T10:03:08.255Z,89.62
2024-01-16T10:09:01.076Z,89.65
2024-01-16T10:11:30.693Z,88.79
2024-01-16T10:14:02.523Z,88.49
2024-01-16T10:16:57.195Z,87.97
2024-01-16T10:19:35.149Z,87.92
2024-01-16T10:22:27.835Z,87.15
2024-01-16T10:25:10.213Z,86.76
2024-01-16T10:27:43.111Z,86.93
2024-01-16T10:30:11.915Z,86.31
2024-01-16T10:36:41.884Z,85.55
2024-01-16T10:39:21.313Z,85.29
2024-01-16T10:42:11.175Z,84.88
2024-01-16T10:48:09.378Z,84.99
2024-01-16T10:51:40.867Z,84.45
2024-01-16T10:54:24.344Z,84.83
2024-01-16T10:56:56.040Z,84.86
2024-01-16T10:59:51.956Z,84.36
2024-01-16T11:02:28.237Z,83.59
2024-01-16T11:04:58.699Z,83.43
2024-01-16T11:07:34.130Z,84.06
2024-01-16T11:10:05.195Z,84.13
2024-01-16T11:13:15.917Z,83.83
2024-01-16T11:16:07.593Z,84.17
2024-01-16T11:19:18.103Z,83.33
2024-01-16T11:22:30.533Z,83.91
2024-01-16T11:37:31.537Z,82.31
2024-01-16T11:40:18.835Z,82.40
2024-01-16T11:43:45.330Z,81.94
2024-01-16T11:50:59.686Z,80.69
2024-01-16T11:53:46.116Z,80.51
2024-01-16T12:15:31.117Z,80.66
2024-01-16T12:21:50.741Z,80.43
2024-01-16T12:25:20.986Z,80.19
2024-01-16T12:43:26.675Z,80.05
2024-01-16T13:08:11.779Z,77.92
2024-01-16T13:18:35.735Z,78.83
2024-01-16T13:21:23.184Z,78.49
2024-01-16T13:29:13.401Z,78.86
2024-01-16T13:31:57.100Z,78.76
2024-01-16T13:36:39.278Z,78.33
2024-01-16T13:38:55.974Z,78.45
2024-01-16T13:41:30.351Z,78.54
2024-01-16T13:44:11.271Z,78.69
2024-01-16T13:47:08.990Z,78.84
2024-01-16T13:50:08.818Z,79.01
2024-01-16T13:58:57.656Z,79.03
2024-01-16T14:01:39.711Z,79.40
2024-01-16T14:11:30.637Z,80.17
2024-01-16T14:14:44.123Z,80.50
2024-01-16T14:17:20.139Z,80.81
2024-01-16T14:20:02.326Z,80.81
2024-01-16T14:22:30.239Z,81.38
2024-01-16T14:24:58.311Z,81.28
2024-01-16T14:27:26.862Z,81.46
2024-01-16T14:29:55.550Z,81.86
2024-01-16T14:32:23.786Z,82.09
2024-01-16T14:34:52.015Z,82.44
2024-01-16T14:37:23.138Z,82.35
2024-01-16T14:39:51.694Z,82.54
2024-01-16T14:42:36.192Z,82.44
2024-01-16T14:45:05.160Z,82.83
2024-01-16T14:50:35.872Z,82.40
2024-01-16T14:53:06.047Z,82.69
2024-01-16T14:55:34.591Z,82.56
2024-01-16T14:58:03.169Z,82.59
2024-01-16T15:00:32.205Z,82.77
2024-01-16T15:03:00.617Z,83.02
2024-01-16T15:05:29.695Z,82.90
2024-01-16T15:07:57.610Z,83.23
2024-01-16T15:10:25.843Z,83.22
2024-01-16T15:12:54.059Z,82.88
2024-01-16T15:15:22.400Z,83.34
2024-01-16T15:17:53.300Z,83.26
2024-01-16T15:20:21.451Z,83.55
2024-01-16T15:22:54.303Z,83.64
2024-01-16T15:25:24.619Z,83.71
2024-01-16T15:27:56.141Z,83.61
2024-01-16T15:30:29.102Z,83.48
2024-01-16T15:32:57.291Z,83.66
2024-01-16T15:35:25.708Z,83.84
2024-01-16T15:37:53.482Z,84.06
2024-01-16T15:40:21.924Z,83.90
2024-01-16T15:42:49.857Z,83.90
2024-01-16T15:45:18.020Z,83.86
2024-01-16T15:47:46.204Z,84.01
2024-01-16T15:50:15.931Z,83.90
2024-01-16T15:52:43.756Z,83.82
2024-01-16T15:55:12.230Z,84.01
2024-01-16T15:57:40.416Z,84.02
2024-01-16T16:00:10.543Z,84.14
2024-01-16T16:02:40.052Z,84.09
2024-01-16T16:05:09.084Z,84.41
2024-01-16T16:07:37.058Z,84.42
2024-01-16T16:10:06.017Z,84.43
2024-01-16T16:12:34.386Z,84.54
2024-01-16T16:15:02.323Z,84.82
2024-01-16T16:17:30.510Z,84.93
2024-01-16T16:19:58.569Z,84.79
2024-01-16T16:22:26.546Z,84.77
2024-01-16T16:24:54.890Z,85.17
2024-01-16T16:27:25.639Z,85.32
2024-01-16T16:29:57.775Z,85.14
2024-01-16T16:32:26.275Z,85.59
2024-01-16T16:34:54.628Z,85.53
2024-01-16T16:37:24.429Z,85.78
2024-01-16T16:39:52.831Z,85.88
2024-01-16T16:42:23.820Z,86.04
2024-01-16T16:44:51.793Z,86.10
2024-01-16T16:47:20.108Z,86.44
2024-01-16T16:49:48.159Z,86.57
2024-01-16T16:52:15.941Z,86.70
2024-01-16T16:54:47.463Z,86.85
2024-01-16T16:57:15.515Z,86.92
2024-01-16T16:59:43.355Z,86.93
2024-01-16T17:02:11.982Z,86.81
2024-01-16T17:04:40.983Z,86.87
2024-01-16T17:07:12.455Z,86.82
2024-01-16T17:09:44.089Z,87.03
2024-01-16T17:12:12.244Z,86.75
2024-01-16T17:14:40.048Z,86.87
2024-01-16T17:17:12.576Z,86.67
2024-01-16T17:19:41.776Z,86.77
2024-01-16T17:22:12.905Z,86.92
2024-01-16T17:24:40.823Z,86.74
2024-01-16T17:27:09.001Z,86.87
2024-01-16T17:29:39.875Z,86.77
2024-01-16T17:32:08.984Z,86.82
2024-01-16T17:34:37.064Z,86.83
2024-01-16T17:37:05.147Z,86.71
2024-01-16T17:39:33.019Z,86.71
2024-01-16T17:42:01.145Z,86.67
2024-01-16T17:44:29.427Z,86.71
2024-01-16T17:46:57.405Z,86.46
2024-01-16T17:49:25.361Z,86.64
2024-01-16T17:51:55.494Z,86.55
2024-01-16T17:54:23.277Z,86.31
2024-01-16T17:56:51.394Z,86.40
2024-01-16T17:59:20.194Z,86.27
2024-01-16T18:01:48.200Z,86.22
2024-01-16T18:04:16.885Z,86.27
2024-01-16T18:06:45.701Z,86.40
2024-01-16T18:09:13.693Z,86.43
2024-01-16T18:11:56.615Z,86.41
2024-01-16T18:14:25.706Z,86.16
2024-01-16T18:16:57.069Z,86.12
2024-01-16T18:19:28.524Z,86.02
2024-01-16T18:21:56.916Z,85.89
2024-01-16T18:24:25.014Z,85.70
2024-01-16T18:26:53.836Z,85.55
2024-01-16T18:29:21.954Z,85.60
2024-01-16T18:31:50.481Z,85.48
2024-01-16T18:34:24.144Z,85.17
2024-01-16T18:36:54.421Z,84.88
2024-01-16T18:39:23.292Z,84.78
2024-01-16T18:41:51.331Z,84.67
2024-01-16T18:44:20.373Z,84.47
2024-01-16T18:46:51.461Z,84.48
2024-01-16T18:49:19.832Z,83.97
2024-01-16T18:51:50.236Z,83.96
2024-01-16T18:54:18.234Z,84.03
2024-01-16T18:56:46.558Z,83.80
2024-01-16T18:59:14.768Z,83.86
2024-01-16T19:01:44.886Z,83.66
2024-01-16T19:04:14.390Z,83.86
2024-01-16T19:06:46.321Z,83.90
2024-01-16T19:09:16.173Z,83.91
2024-01-16T19:11:51.653Z,83.51
2024-01-16T19:14:20.521Z,83.55
2024-01-16T19:16:50.582Z,83.50
2024-01-16T19:19:18.470Z,83.54
2024-01-16T19:21:47.849Z,83.33
2024-01-16T19:24:16.620Z,83.39
2024-01-16T19:26:44.952Z,83.60
2024-01-16T19:29:13.406Z,83.26
2024-01-16T19:31:45.883Z,83.40
2024-01-16T19:34:14.063Z,83.31
2024-01-16T19:36:42.269Z,83.16
2024-01-16T19:39:16.152Z,83.27
2024-01-16T19:41:47.099Z,83.30
2024-01-16T19:44:14.911Z,83.18
2024-01-16T19:46:44.540Z,83.22
2024-01-16T19:49:13.134Z,83.22
2024-01-16T19:51:41.167Z,83.31
2024-01-16T19:54:09.621Z,82.85
2024-01-16T19:56:40.542Z,82.85
2024-01-16T19:59:11.798Z,82.73
2024-01-16T20:01:40.107Z,82.55
2024-01-16T20:04:07.904Z,82.52
2024-01-16T20:06:36.277Z,82.68
2024-01-16T20:09:07.406Z,82.58
2024-01-16T20:11:35.448Z,82.41
2024-01-16T20:14:03.637Z,82.34
2024-01-16T20:16:31.810Z,82.38
2024-01-16T20:18:59.709Z,82.35
2024-01-16T20:21:28.012Z,82.14
2024-01-16T20:23:56.224Z,82.04
2024-01-16T20:26:24.144Z,81.97
2024-01-16T20:28:52.362Z,81.89
2024-01-16T20:31:20.682Z,81.84
2024-01-16T20:33:50.633Z,81.93
2024-01-16T20:36:20.569Z,81.99
2024-01-16T20:38:50.132Z,82.03
2024-01-16T20:41:18.200Z,81.92
2024-01-16T20:43:46.223Z,81.73
2024-01-16T20:46:15.730Z,81.42
2024-01-16T20:48:43.745Z,81.28
2024-01-16T20:51:15.367Z,81.17
2024-01-16T20:53:43.649Z,81.17
2024-01-16T20:56:11.698Z,81.26
2024-01-16T20:58:40.080Z,81.13
2024-01-16T21:01:08.812Z,80.99
2024-01-16T21:03:37.228Z,81.07
2024-01-16T21:06:08.460Z,80.93
2024-01-16T21:08:38.425Z,80.88
2024-01-16T21:11:09.031Z,81.03
2024-01-16T21:13:36.877Z,81.10
2024-01-16T21:16:08.733Z,81.20
2024-01-16T21:18:39.387Z,81.23
2024-01-16T21:21:07.609Z,81.26
2024-01-16T21:23:36.464Z,81.38
2024-01-16T21:26:11.087Z,81.29
2024-01-16T21:28:42.532Z,81.29
2024-01-16T21:31:10.384Z,80.96
2024-01-16T21:33:38.304Z,81.06
2024-01-16T21:36:06.761Z,81.02
2024-01-16T21:38:35.980Z,81.08
2024-01-16T21:41:08.238Z,80.97
2024-01-16T21:43:36.387Z,81.01
2024-01-16T21:46:04.268Z,81.06
2024-01-16T21:48:33.444Z,80.80
2024-01-16T21:51:01.991Z,80.69
2024-01-16T21:53:30.441Z,80.63
2024-01-16T21:55:58.585Z,80.23
2024-01-16T21:58:27.679Z,80.01
2024-01-16T22:00:56.754Z,80.06
2024-01-16T22:03:24.555Z,80.02
2024-01-16T22:05:52.815Z,80.15
2024-01-16T22:08:20.650Z,80.06
2024-01-16T22:10:49.047Z,80.22
2024-01-16T22:13:17.221Z,80.19
2024-01-16T22:15:44.948Z,80.02
2024-01-16T22:18:13.457Z,79.96
2024-01-16T22:20:41.907Z,79.91
2024-01-16T22:23:10.382Z,79.74
2024-01-16T22:25:38.282Z,79.90
2024-01-16T22:28:06.484Z,79.92
2024-01-16T22:30:35.399Z,79.99
2024-01-16T22:33:05.865Z,80.09
2024-01-16T22:35:34.234Z,79.99
2024-01-16T22:38:01.954Z,79.94
2024-01-16T22:40:31.624Z,79.97
2024-01-16T22:43:00.178Z,80.01
2024-01-16T22:45:27.882Z,79.92
2024-01-16T22:47:58.307Z,80.11
2024-01-16T22:50:26.747Z,80.00
2024-01-16T22:52:54.562Z,80.26
2024-01-16T22:55:22.518Z,80.25
2024-01-16T22:57:50.657Z,80.28
2024-01-16T23:00:21.787Z,80.22
2024-01-16T23:02:50.248Z,80.28
2024-01-16T23:05:18.602Z,80.45
2024-01-16T23:07:47.004Z,80.38
2024-01-16T23:10:15.998Z,80.41
2024-01-16T23:12:46.934Z,80.42
2024-01-16T23:15:16.717Z,80.24
2024-01-16T23:17:45.229Z,80.30
2024-01-16T23:20:17.590Z,80.48
2024-01-16T23:22:45.685Z,80.21
2024-01-16T23:25:14.672Z,80.20
2024-01-16T23:27:44.118Z,80.24
2024-01-16T23:30:12.430Z,80.12
2024-01-16T23:32:40.735Z,80.29
2024-01-16T23:35:08.951Z,80.33
2024-01-16T23:37:37.619Z,80.22
2024-01-16T23:40:06.285Z,80.33
2024-01-16T23:42:34.394Z,80.42
2024-01-16T23:45:06.462Z,80.38
2024-01-16T23:47:39.035Z,80.21
2024-01-16T23:50:07.855Z,80.29
2024-01-16T23:52:35.727Z,80.60
2024-01-16T23:55:04.168Z,80.25
2024-01-16T23:57:32.012Z,80.50
